Time;durP1;ratioP1;P1;durP2;ratioP2;P2;SDS_P1;SDS_P2;PMS_P1;PMS_P2;Temp;Humidity;BMP_temperature;BMP_pressure;BME280_temperature;BME280_humidity;BME280_pressure;Samples;Min_cycle;Max_cycle;Signal;HPM_P1;HPM_P2
2021/12/27 00:04:02;;;;;;;39.10;23.40;;;22.10;43.60;;;;;;214225;1309;27648;-52
2021/12/27 00:09:05;;;;;;;38.70;23.50;;;22.10;43.10;;;;;;214137;1309;22555;-54
2021/12/27 00:14:09;;;;;;;39.70;23.70;;;22.00;43.80;;;;;;214217;1309;24435;-50
2021/12/27 00:19:16;;;;;;;35.90;22.50;;;22.00;44.00;;;;;;214455;1309;22579;-52
2021/12/27 00:24:20;;;;;;;43.70;24.50;;;21.80;44.10;;;;;;214044;1312;22721;-56
2021/12/27 00:29:23;;;;;;;36.50;22.40;;;21.80;44.10;;;;;;214108;1309;22590;-58
2021/12/27 00:34:27;;;;;;;34.20;22.00;;;21.70;44.10;;;;;;213949;1312;22574;-55
2021/12/27 00:39:30;;;;;;;37.60;22.80;;;21.60;44.10;;;;;;214108;1309;24298;-52
2021/12/27 00:44:34;;;;;;;36.40;21.70;;;21.60;44.10;;;;;;214187;1309;22752;-55
2021/12/27 00:49:37;;;;;;;34.90;20.40;;;21.50;44.10;;;;;;214198;1309;23235;-53
2021/12/27 00:54:45;;;;;;;38.20;21.80;;;21.40;44.10;;;;;;214135;1309;24279;-55
2021/12/27 00:59:50;;;;;;;36.80;21.90;;;21.40;44.20;;;;;;214281;1309;24315;-54
2021/12/27 01:04:54;;;;;;;36.80;20.70;;;21.40;44.10;;;;;;213923;1309;326898;-55
2021/12/27 01:20:39;;;;;;;32.10;21.30;;;21.30;44.00;;;;;;214183;1309;25577;-55
2021/12/27 01:25:42;;;;;;;32.90;20.20;;;21.50;43.70;;;;;;214188;1309;22558;-54
2021/12/27 01:30:48;;;;;;;33.20;20.40;;;21.60;43.50;;;;;;214229;1309;22571;-53
2021/12/27 01:35:59;;;;;;;33.20;20.70;;;21.60;43.30;;;;;;214135;1309;25594;-53
2021/12/27 01:41:04;;;;;;;34.20;19.60;;;21.60;43.10;;;;;;214225;1309;25345;-52
2021/12/27 01:46:15;;;;;;;34.10;19.70;;;21.60;43.50;;;;;;214253;1309;22599;-56
2021/12/27 01:51:18;;;;;;;31.80;19.10;;;21.50;43.30;;;;;;214214;1309;22668;-51
2021/12/27 01:56:23;;;;;;;31.40;19.60;;;21.40;43.70;;;;;;214220;1309;26545;-55
2021/12/27 02:01:27;;;;;;;32.50;18.30;;;21.40;43.50;;;;;;214123;1309;24316;-52
2021/12/27 02:06:31;;;;;;;31.80;19.10;;;21.40;43.60;;;;;;213987;1309;22564;-56
2021/12/27 02:11:35;;;;;;;31.80;19.30;;;21.30;43.60;;;;;;214152;1308;24435;-54
2021/12/27 02:16:38;;;;;;;31.40;18.60;;;21.30;43.60;;;;;;214176;1312;25518;-57
2021/12/27 02:21:42;;;;;;;31.40;18.60;;;21.20;43.60;;;;;;213574;1312;25352;-54
2021/12/27 02:26:46;;;;;;;28.10;17.30;;;21.10;44.00;;;;;;213971;1312;22640;-53
2021/12/27 02:31:51;;;;;;;28.20;17.20;;;21.00;43.90;;;;;;214052;1310;22621;-56
2021/12/27 02:36:55;;;;;;;30.70;18.90;;;21.00;44.00;;;;;;214299;1311;22581;-53
2021/12/27 02:41:58;;;;;;;31.00;17.80;;;20.90;44.10;;;;;;214254;1313;24964;-54
2021/12/27 02:47:02;;;;;;;29.70;17.80;;;21.00;44.10;;;;;;214189;1309;23949;-53
2021/12/27 02:52:06;;;;;;;28.90;18.00;;;21.00;44.00;;;;;;214348;1309;22548;-57
2021/12/27 02:57:10;;;;;;;30.10;18.90;;;21.20;43.60;;;;;;214356;1309;22558;-56
2021/12/27 03:02:13;;;;;;;33.10;18.20;;;21.40;43.30;;;;;;214271;1309;22550;-54
2021/12/27 03:07:17;;;;;;;31.40;17.60;;;21.50;43.60;;;;;;214083;1309;22574;-54
2021/12/27 03:12:20;;;;;;;29.40;17.40;;;21.40;43.00;;;;;;214376;1309;22586;-53
2021/12/27 03:17:24;;;;;;;30.00;17.80;;;21.40;43.10;;;;;;214266;1309;22603;-53
2021/12/27 03:22:27;;;;;;;26.60;16.20;;;21.30;43.10;;;;;;214152;1309;22558;-53
2021/12/27 03:27:31;;;;;;;29.50;17.40;;;21.30;43.20;;;;;;214280;1309;22581;-54
2021/12/27 03:32:36;;;;;;;27.90;16.20;;;21.20;43.30;;;;;;214252;1309;24337;-53
2021/12/27 03:37:44;;;;;;;28.50;16.70;;;21.10;43.30;;;;;;214325;1309;24831;-53
2021/12/27 03:42:52;;;;;;;28.90;17.00;;;21.00;43.40;;;;;;214334;1309;22575;-56
2021/12/27 03:47:57;;;;;;;28.50;16.90;;;21.00;43.50;;;;;;214367;1309;22567;-52
2021/12/27 03:53:01;;;;;;;30.70;16.90;;;21.00;43.60;;;;;;214332;1309;22574;-52
2021/12/27 03:58:21;;;;;;;28.30;17.00;;;20.90;43.70;;;;;;213894;1312;22628;-54
2021/12/27 04:03:25;;;;;;;27.00;16.50;;;20.90;44.10;;;;;;214149;1312;24292;-53
2021/12/27 04:08:28;;;;;;;28.80;16.60;;;20.90;43.70;;;;;;214060;1311;22581;-54
2021/12/27 04:13:33;;;;;;;29.20;17.90;;;20.80;43.60;;;;;;214419;1309;25841;-52
2021/12/27 04:18:37;;;;;;;28.70;16.90;;;20.80;43.70;;;;;;214229;1309;22593;-55
2021/12/27 04:23:41;;;;;;;29.20;16.20;;;20.80;43.80;;;;;;214577;1309;22581;-52
2021/12/27 04:28:46;;;;;;;25.80;16.10;;;21.00;43.70;;;;;;214322;1309;22589;-53
2021/12/27 04:33:50;;;;;;;27.60;16.70;;;21.10;43.20;;;;;;214321;1309;26573;-54
2021/12/27 04:38:53;;;;;;;27.50;16.10;;;21.20;42.90;;;;;;214234;1309;22577;-55
2021/12/27 04:43:57;;;;;;;27.70;15.40;;;21.20;42.90;;;;;;214235;1312;22577;-53
2021/12/27 04:49:02;;;;;;;26.10;15.90;;;21.20;42.90;;;;;;214318;1309;24221;-54
2021/12/27 04:54:05;;;;;;;27.30;15.60;;;21.10;43.40;;;;;;213826;1312;22584;-51
2021/12/27 04:59:09;;;;;;;26.60;16.10;;;21.10;42.90;;;;;;214267;1309;24339;-53
2021/12/27 05:04:13;;;;;;;28.20;16.30;;;21.00;43.00;;;;;;214301;1312;24247;-55
2021/12/27 05:09:16;;;;;;;25.50;15.20;;;21.00;43.00;;;;;;214118;1312;22656;-54
2021/12/27 05:14:20;;;;;;;26.00;14.80;;;20.90;43.40;;;;;;214209;1309;22603;-52
2021/12/27 05:19:23;;;;;;;27.50;16.00;;;20.90;43.20;;;;;;214212;1312;22561;-56
2021/12/27 05:24:28;;;;;;;23.70;14.70;;;20.90;43.40;;;;;;214339;1309;23064;-52
2021/12/27 05:29:31;;;;;;;25.80;14.90;;;20.70;43.40;;;;;;214255;1311;23958;-55
2021/12/27 05:34:36;;;;;;;24.30;15.50;;;20.70;43.50;;;;;;214220;1309;25102;-53
2021/12/27 05:39:40;;;;;;;25.50;14.90;;;20.70;44.00;;;;;;214266;1316;23299;-56
2021/12/27 05:44:43;;;;;;;24.90;15.30;;;20.60;43.90;;;;;;214389;1311;24157;-55
2021/12/27 05:49:47;;;;;;;27.40;14.90;;;20.60;43.80;;;;;;214296;1312;27161;-55
2021/12/27 05:54:50;;;;;;;25.20;14.80;;;20.60;43.90;;;;;;214207;1311;25367;-55
2021/12/27 05:59:54;;;;;;;26.30;15.80;;;20.60;44.20;;;;;;214217;1315;25542;-53
2021/12/27 06:04:57;;;;;;;23.90;14.80;;;20.80;43.40;;;;;;214148;1312;22590;-52
2021/12/27 06:10:02;;;;;;;23.80;14.40;;;21.10;43.00;;;;;;214178;1317;22611;-56
2021/12/27 06:15:06;;;;;;;28.80;14.70;;;21.20;42.90;;;;;;214161;1312;22590;-52
2021/12/27 06:20:14;;;;;;;22.40;14.70;;;21.10;42.60;;;;;;214120;1316;22558;-53
2021/12/27 06:25:17;;;;;;;24.50;14.30;;;21.10;42.80;;;;;;213925;1312;22571;-60
2021/12/27 06:30:21;;;;;;;22.50;13.80;;;21.00;42.70;;;;;;214347;1312;22656;-54
2021/12/27 06:35:25;;;;;;;23.00;14.50;;;21.00;43.00;;;;;;214399;1312;22599;-55
2021/12/27 06:40:30;;;;;;;23.90;14.50;;;20.90;42.90;;;;;;214200;1312;22568;-54
2021/12/27 06:45:34;;;;;;;24.60;13.70;;;20.80;42.90;;;;;;214070;1312;25238;-52
2021/12/27 06:50:37;;;;;;;20.70;13.10;;;20.70;43.50;;;;;;214226;1318;25276;-51
2021/12/27 06:55:45;;;;;;;22.30;13.70;;;20.70;43.10;;;;;;214196;1318;25548;-55
2021/12/27 07:00:49;;;;;;;20.70;12.90;;;20.60;43.30;;;;;;214284;1309;24404;-54
2021/12/27 07:05:53;;;;;;;19.70;12.60;;;20.60;43.40;;;;;;214292;1309;24143;-51
2021/12/27 07:10:56;;;;;;;22.10;12.40;;;20.60;43.50;;;;;;214342;1315;22571;-56
2021/12/27 07:16:00;;;;;;;22.60;14.40;;;20.60;43.40;;;;;;214201;1312;22586;-52
2021/12/27 07:21:04;;;;;;;21.40;12.50;;;20.60;43.40;;;;;;213621;1311;22621;-54
2021/12/27 07:26:08;;;;;;;21.70;13.20;;;20.60;43.40;;;;;;214267;1312;22590;-53
2021/12/27 07:31:12;;;;;;;21.30;13.00;;;20.50;43.50;;;;;;214189;1312;22571;-52
2021/12/27 07:36:19;;;;;;;21.80;13.60;;;20.60;43.50;;;;;;214225;1309;22580;-52
2021/12/27 07:41:27;;;;;;;21.50;12.70;;;20.80;43.20;;;;;;214159;1313;22580;-54
2021/12/27 07:46:32;;;;;;;21.20;12.90;;;21.00;42.80;;;;;;214252;1312;24249;-53
2021/12/27 07:51:36;;;;;;;22.70;13.90;;;21.10;42.80;;;;;;214175;1318;22683;-55
2021/12/27 07:56:43;;;;;;;21.00;13.30;;;21.00;42.90;;;;;;214242;1315;22665;-55
2021/12/27 08:01:49;;;;;;;20.60;12.20;;;21.00;42.60;;;;;;214272;1310;22999;-52
2021/12/27 08:06:53;;;;;;;23.30;12.20;;;21.00;42.50;;;;;;213984;1310;22603;-54
2021/12/27 08:11:57;;;;;;;20.00;13.20;;;21.00;42.70;;;;;;213755;1312;25413;-53
2021/12/27 08:17:03;;;;;;;27.10;12.90;;;21.00;42.60;;;;;;214142;1309;22595;-52
2021/12/27 08:22:09;;;;;;;21.20;12.40;;;20.90;42.80;;;;;;214217;1310;22661;-51
2021/12/27 08:27:13;;;;;;;23.70;12.70;;;20.90;43.00;;;;;;214047;1312;22815;-53
2021/12/27 08:32:19;;;;;;;23.70;11.70;;;20.90;43.70;;;;;;214112;1309;24397;-52
2021/12/27 08:37:23;;;;;;;18.70;12.00;;;20.60;44.00;;;;;;214392;1309;22570;-54
2021/12/27 08:42:30;;;;;;;20.30;11.70;;;20.70;44.00;;;;;;214249;1313;22645;-52
2021/12/27 08:47:46;;;;;;;21.10;11.70;;;20.70;44.80;;;;;;214076;1312;24390;-51
2021/12/27 08:52:50;;;;;;;19.30;11.10;;;20.60;44.80;;;;;;214386;1314;22641;-53
2021/12/27 08:57:57;;;;;;;19.60;11.40;;;20.90;44.50;;;;;;214113;1312;22646;-53
2021/12/27 09:03:13;;;;;;;22.60;11.50;;;21.30;44.10;;;;;;214070;1309;22565;-53
2021/12/27 09:08:22;;;;;;;22.20;12.70;;;21.70;43.40;;;;;;213961;1312;289649;-56
2021/12/27 09:13:32;;;;;;;19.70;10.50;;;22.00;42.30;;;;;;214260;1309;26651;-54
2021/12/27 09:18:41;;;;;;;17.30;11.00;;;22.20;42.10;;;;;;214143;1309;22581;-53
2021/12/27 09:23:45;;;;;;;21.10;12.30;;;22.30;42.40;;;;;;214184;1309;26883;-51
2021/12/27 09:29:00;;;;;;;19.40;11.60;;;22.40;42.90;;;;;;214111;1309;26524;-52
2021/12/27 09:34:33;;;;;;;18.90;10.90;;;22.50;42.40;;;;;;214051;1309;25370;-54
2021/12/27 09:39:53;;;;;;;19.20;11.50;;;22.50;41.90;;;;;;216429;1312;24248;-51
2021/12/27 09:45:20;;;;;;;19.80;11.40;;;22.70;41.70;;;;;;214274;1312;26696;-50
2021/12/27 09:50:42;;;;;;;20.70;12.40;;;22.90;40.90;;;;;;213505;1312;24318;-51
2021/12/27 09:56:13;;;;;;;22.00;11.60;;;22.90;41.30;;;;;;219745;1321;22509;-55
2021/12/27 10:01:43;;;;;;;18.40;10.80;;;23.00;41.10;;;;;;219509;1321;22144;-51
2021/12/27 10:06:51;;;;;;;24.00;12.00;;;23.00;41.00;;;;;;219810;1322;22399;-54
2021/12/27 10:11:56;;;;;;;20.50;10.80;;;23.00;41.00;;;;;;219630;1322;22409;-52
2021/12/27 10:17:11;;;;;;;18.80;11.80;;;23.20;40.60;;;;;;217849;1309;22600;-55
2021/12/27 10:22:30;;;;;;;29.00;12.30;;;23.20;40.70;;;;;;213772;1309;22617;-55
2021/12/27 10:27:41;;;;;;;22.70;12.00;;;23.30;40.70;;;;;;213912;1316;25342;-52
2021/12/27 10:33:09;;;;;;;26.40;12.50;;;23.60;40.80;;;;;;213428;1316;22614;-51
2021/12/27 10:38:31;;;;;;;23.30;12.20;;;23.60;40.40;;;;;;215995;1318;26752;-51
2021/12/27 10:43:47;;;;;;;26.50;11.30;;;23.60;40.70;;;;;;213930;1309;22709;-52
2021/12/27 10:49:11;;;;;;;23.50;12.00;;;23.70;40.90;;;;;;214338;1312;22574;-54
2021/12/27 10:54:15;;;;;;;22.20;11.60;;;23.90;40.30;;;;;;214024;1312;22558;-54
2021/12/27 10:59:21;;;;;;;21.00;11.00;;;23.90;40.60;;;;;;213597;1312;28058;-52
2021/12/27 11:04:25;;;;;;;21.10;11.30;;;24.00;40.20;;;;;;213458;1315;22578;-51
2021/12/27 11:09:29;;;;;;;22.20;11.20;;;24.00;40.00;;;;;;216390;1310;22628;-51
2021/12/27 11:14:35;;;;;;;21.10;11.50;;;24.10;40.10;;;;;;222012;1316;22363;-51
2021/12/27 11:19:40;;;;;;;20.90;10.70;;;24.30;39.90;;;;;;221727;1316;22405;-51
2021/12/27 11:24:44;;;;;;;21.00;11.50;;;24.40;39.60;;;;;;218202;1315;24435;-54
2021/12/27 11:30:08;;;;;;;19.70;11.00;;;24.50;39.30;;;;;;213702;1310;24227;-51
2021/12/27 11:35:19;;;;;;;25.00;12.10;;;24.60;39.30;;;;;;220470;1315;25380;-54
2021/12/27 11:40:22;;;;;;;24.20;12.40;;;24.60;40.60;;;;;;213705;1314;24332;-54
2021/12/27 11:45:51;;;;;;;24.10;13.00;;;24.70;40.30;;;;;;214044;1314;22706;-53
2021/12/27 11:51:10;;;;;;;21.20;11.40;;;24.80;40.40;;;;;;214100;1315;22597;-55
2021/12/27 11:56:15;;;;;;;;;;;24.70;40.40;;;;;;214108;1315;22545;-53
2021/12/27 12:01:19;;;;;;;22.50;11.60;;;24.80;40.70;;;;;;214027;1316;22573;-53
2021/12/27 12:06:43;;;;;;;23.50;12.40;;;24.80;40.20;;;;;;214260;1316;27308;-53
2021/12/27 12:12:03;;;;;;;20.20;11.50;;;24.80;40.20;;;;;;214245;1316;22562;-53
2021/12/27 12:17:16;;;;;;;23.30;11.60;;;24.60;40.70;;;;;;214024;1315;24424;-51
2021/12/27 12:22:43;;;;;;;25.00;12.80;;;24.40;40.70;;;;;;214043;1315;22581;-55
2021/12/27 12:27:50;;;;;;;24.90;12.30;;;24.10;41.30;;;;;;213100;1311;22696;-53
2021/12/27 12:33:00;;;;;;;21.30;10.50;;;24.10;41.40;;;;;;213943;1309;23020;-55
2021/12/27 12:38:22;;;;;;;24.80;12.30;;;23.80;42.50;;;;;;214238;1314;25255;-54
2021/12/27 12:43:57;;;;;;;21.60;11.60;;;23.80;42.90;;;;;;214337;1316;25434;-53
2021/12/27 12:49:04;;;;;;;22.70;11.70;;;23.60;43.10;;;;;;214405;1318;22787;-55
2021/12/27 12:54:22;;;;;;;21.60;10.30;;;23.50;43.80;;;;;;214259;1316;22589;-56
2021/12/27 12:59:33;;;;;;;24.60;12.10;;;23.20;43.90;;;;;;214339;1316;22616;-52
2021/12/27 13:04:38;;;;;;;21.40;12.30;;;23.20;43.20;;;;;;214315;1316;24748;-53
2021/12/27 13:09:50;;;;;;;25.90;13.30;;;23.10;43.30;;;;;;214276;1312;22585;-53
2021/12/27 13:15:06;;;;;;;22.00;13.30;;;22.90;43.10;;;;;;214137;1309;25521;-50
2021/12/27 13:20:14;;;;;;;30.40;15.90;;;22.80;43.60;;;;;;213535;1318;24301;-55
2021/12/27 13:25:36;;;;;;;28.50;18.20;;;22.60;43.60;;;;;;213643;1319;22574;-52
2021/12/27 13:30:46;;;;;;;24.80;15.20;;;22.50;43.40;;;;;;213984;1318;22584;-53
2021/12/27 13:35:50;;;;;;;25.30;15.00;;;22.30;43.40;;;;;;214106;1318;24323;-52
2021/12/27 13:41:02;;;;;;;20.80;13.20;;;22.30;43.70;;;;;;214218;1312;24277;-55
2021/12/27 13:46:10;;;;;;;25.50;14.80;;;22.10;44.00;;;;;;214111;1318;25256;-53
2021/12/27 13:51:29;;;;;;;26.40;15.80;;;22.10;45.60;;;;;;213875;1316;26683;-53
2021/12/27 13:56:36;;;;;;;29.00;13.90;;;22.00;46.30;;;;;;214268;1316;22609;-54
2021/12/27 14:01:42;;;;;;;23.00;13.30;;;21.90;46.10;;;;;;214431;1319;22662;-53
2021/12/27 14:06:47;;;;;;;24.30;14.80;;;21.80;46.30;;;;;;214820;1313;25694;-51
2021/12/27 14:11:58;;;;;;;21.70;13.40;;;22.00;46.20;;;;;;214497;1316;22636;-50
2021/12/27 14:17:07;;;;;;;26.50;14.60;;;22.70;44.90;;;;;;214419;1315;22595;-51
2021/12/27 14:22:14;;;;;;;27.60;14.20;;;23.10;43.80;;;;;;214295;1315;23260;-51
2021/12/27 14:27:33;;;;;;;23.40;13.80;;;23.40;43.30;;;;;;214411;1316;22652;-55
2021/12/27 14:32:40;;;;;;;22.20;13.30;;;23.50;43.10;;;;;;214475;1316;22641;-52
2021/12/27 14:37:50;;;;;;;19.70;13.10;;;23.60;43.00;;;;;;214362;1316;23088;-52
2021/12/27 14:42:55;;;;;;;21.00;12.60;;;23.70;42.80;;;;;;214559;1316;22610;-52
2021/12/27 14:48:00;;;;;;;22.70;13.60;;;23.80;42.60;;;;;;214591;1315;24225;-54
2021/12/27 14:53:04;;;;;;;20.90;12.30;;;23.90;42.50;;;;;;214470;1315;24274;-52
2021/12/27 14:58:10;;;;;;;27.70;14.20;;;23.90;42.50;;;;;;214325;1316;22762;-55
2021/12/27 15:03:14;;;;;;;23.00;12.80;;;23.90;42.40;;;;;;214454;1316;24323;-55
2021/12/27 15:08:18;;;;;;;25.00;13.40;;;23.90;42.50;;;;;;214406;1314;22606;-58
2021/12/27 15:13:28;;;;;;;23.70;13.00;;;23.90;42.60;;;;;;214317;1309;24404;-52
2021/12/27 15:18:47;;;;;;;26.90;12.80;;;24.00;42.50;;;;;;214338;1309;22589;-53
2021/12/27 15:24:14;;;;;;;21.90;13.70;;;23.90;42.50;;;;;;214327;1312;25542;-53
2021/12/27 15:29:26;;;;;;;21.30;12.50;;;24.00;42.50;;;;;;214281;1310;22715;-57
2021/12/27 15:34:32;;;;;;;23.90;12.70;;;24.00;42.40;;;;;;214346;1309;22838;-54
2021/12/27 15:39:39;;;;;;;22.50;12.80;;;24.10;42.50;;;;;;214109;1309;26117;-53
2021/12/27 15:44:43;;;;;;;21.90;13.30;;;24.10;42.10;;;;;;214189;1309;22597;-53
2021/12/27 15:49:49;;;;;;;26.10;13.90;;;24.30;41.60;;;;;;214394;1310;22727;-54
2021/12/27 15:54:59;;;;;;;24.60;14.40;;;24.20;40.10;;;;;;214281;1315;24338;-52
2021/12/27 16:00:18;;;;;;;25.70;14.00;;;24.20;40.00;;;;;;214401;1316;24340;-55
2021/12/27 16:05:22;;;;;;;25.50;14.20;;;24.30;40.10;;;;;;214191;1313;22610;-54
2021/12/27 16:10:31;;;;;;;22.30;13.40;;;24.20;40.60;;;;;;214380;1317;22668;-56
2021/12/27 16:15:35;;;;;;;20.60;12.50;;;24.10;41.20;;;;;;214271;1317;22587;-56
2021/12/27 16:20:47;;;;;;;23.70;14.70;;;23.90;42.20;;;;;;214281;1316;26781;-56
2021/12/27 16:25:52;;;;;;;25.30;14.50;;;23.60;43.20;;;;;;214325;1316;22580;-55
2021/12/27 16:31:01;;;;;;;30.60;13.80;;;23.60;43.50;;;;;;214362;1312;23105;-55
2021/12/27 16:36:11;;;;;;;34.70;13.30;;;23.60;43.40;;;;;;213908;1318;24443;-56
2021/12/27 16:41:17;;;;;;;35.60;13.80;;;23.60;43.20;;;;;;213526;1310;22567;-55
2021/12/27 16:46:25;;;;;;;25.70;13.50;;;23.50;43.00;;;;;;214069;1309;25255;-55
2021/12/27 16:51:50;;;;;;;36.70;15.40;;;23.50;42.80;;;;;;214227;1309;25341;-51
2021/12/27 16:57:05;;;;;;;25.80;14.60;;;23.50;43.30;;;;;;213961;1309;22678;-55
2021/12/27 17:02:12;;;;;;;27.10;14.50;;;23.50;43.30;;;;;;214185;1309;22642;-56
2021/12/27 17:07:17;;;;;;;30.70;15.20;;;23.60;43.50;;;;;;213968;1309;172919;-54
2021/12/27 17:12:24;;;;;;;29.10;14.70;;;23.60;42.70;;;;;;214291;1310;22602;-51
2021/12/27 17:17:31;;;;;;;28.80;15.60;;;23.80;42.40;;;;;;214359;1314;24257;-51
2021/12/27 17:22:34;;;;;;;28.30;16.40;;;23.90;40.60;;;;;;214355;1316;25544;-52
2021/12/27 17:27:38;;;;;;;30.90;15.50;;;23.80;40.90;;;;;;214241;1309;25589;-53
2021/12/27 17:32:47;;;;;;;27.00;15.40;;;23.80;41.40;;;;;;214280;1309;22589;-56
2021/12/27 17:37:57;;;;;;;25.80;16.70;;;23.80;41.70;;;;;;214195;1309;22587;-53
2021/12/27 17:43:01;;;;;;;23.70;15.40;;;23.80;41.80;;;;;;214507;1314;22653;-51
2021/12/27 17:48:07;;;;;;;27.40;15.70;;;23.80;41.90;;;;;;214414;1309;24438;-55
2021/12/27 17:53:10;;;;;;;28.00;15.70;;;23.80;41.90;;;;;;214407;1309;23792;-51
2021/12/27 17:58:15;;;;;;;25.90;16.70;;;23.80;42.00;;;;;;214265;1315;22593;-51
2021/12/27 18:03:19;;;;;;;30.40;16.70;;;23.80;42.10;;;;;;214396;1314;22656;-51
2021/12/27 18:08:23;;;;;;;28.50;16.30;;;23.80;42.00;;;;;;214360;1309;26542;-54
2021/12/27 18:13:28;;;;;;;25.40;15.90;;;23.80;41.90;;;;;;214464;1316;22668;-51
2021/12/27 18:18:33;;;;;;;23.20;15.90;;;23.70;42.10;;;;;;214613;1314;24790;-54
2021/12/27 18:23:41;;;;;;;25.00;16.60;;;23.70;42.00;;;;;;214349;1309;24564;-56
2021/12/27 18:28:45;;;;;;;30.30;17.40;;;23.70;42.20;;;;;;214263;1316;25543;-52
2021/12/27 18:33:49;;;;;;;27.40;16.00;;;23.70;42.30;;;;;;214325;1316;22697;-53
2021/12/27 18:38:55;;;;;;;25.70;16.50;;;23.70;42.30;;;;;;214215;1316;22603;-53
2021/12/27 18:43:58;;;;;;;29.50;17.10;;;23.60;41.70;;;;;;214041;1316;22909;-53
2021/12/27 18:49:08;;;;;;;27.80;17.10;;;23.50;41.50;;;;;;214224;1315;25660;-50
2021/12/27 18:54:14;;;;;;;28.20;16.70;;;23.40;41.30;;;;;;214188;1309;23215;-50
2021/12/27 18:59:22;;;;;;;23.80;16.20;;;23.40;41.20;;;;;;213845;1309;24407;-54
2021/12/27 19:04:26;;;;;;;25.00;17.20;;;23.40;41.00;;;;;;213935;1315;22593;-53
2021/12/27 19:09:37;;;;;;;24.80;17.10;;;23.50;40.70;;;;;;214130;1309;22577;-55
2021/12/27 19:14:50;;;;;;;25.90;17.10;;;23.60;40.70;;;;;;214385;1309;22573;-54
2021/12/27 19:20:03;;;;;;;27.40;17.10;;;23.60;41.20;;;;;;214263;1315;23202;-56
2021/12/27 19:25:17;;;;;;;25.90;17.30;;;23.60;40.70;;;;;;214123;1314;25548;-52
2021/12/27 19:30:35;;;;;;;28.30;17.30;;;23.60;40.80;;;;;;214326;1309;22597;-53
2021/12/27 19:35:48;;;;;;;28.40;16.80;;;23.60;40.80;;;;;;213773;1314;22761;-53
2021/12/27 19:41:33;;;;;;;26.90;17.70;;;23.60;40.60;;;;;;214024;1312;25364;-53
2021/12/27 19:46:39;;;;;;;25.20;17.20;;;23.60;39.60;;;;;;214163;1316;25533;-52
2021/12/27 19:51:44;;;;;;;28.10;18.30;;;23.50;40.30;;;;;;214515;1310;24336;-53
2021/12/27 19:56:55;;;;;;;27.90;18.00;;;23.50;39.70;;;;;;214258;1312;22598;-53
2021/12/27 20:02:10;;;;;;;29.30;16.70;;;23.50;39.60;;;;;;213849;1316;24230;-52
2021/12/27 20:07:20;;;;;;;33.30;17.30;;;23.40;39.50;;;;;;214047;1314;22767;-53
2021/12/27 20:12:40;;;;;;;26.10;16.50;;;23.40;39.70;;;;;;214073;1316;22690;-53
2021/12/27 20:17:53;;;;;;;25.00;17.00;;;23.40;39.80;;;;;;214079;1312;22558;-52
2021/12/27 20:23:07;;;;;;;26.00;17.30;;;23.40;39.50;;;;;;214110;1316;22645;-55
2021/12/27 20:28:24;;;;;;;30.10;16.50;;;23.40;39.50;;;;;;214115;1312;24248;-55
2021/12/27 20:33:32;;;;;;;22.40;16.20;;;23.40;39.20;;;;;;214091;1312;24315;-55
2021/12/27 20:38:38;;;;;;;24.00;17.20;;;23.40;39.20;;;;;;214001;1309;22678;-55
2021/12/27 20:43:46;;;;;;;33.10;16.80;;;23.40;39.60;;;;;;213966;1309;22609;-52
2021/12/27 20:48:54;;;;;;;25.40;17.10;;;23.40;39.10;;;;;;214155;1316;25462;-55
2021/12/27 20:53:58;;;;;;;31.30;16.90;;;23.40;38.90;;;;;;214130;1309;22802;-53
2021/12/27 20:59:06;;;;;;;25.80;16.70;;;23.50;39.40;;;;;;214251;1313;23481;-54
2021/12/27 21:04:15;;;;;;;27.10;15.90;;;23.40;39.30;;;;;;213712;1314;25446;-55
2021/12/27 21:09:27;;;;;;;25.00;16.10;;;23.40;39.60;;;;;;214183;1309;24274;-53
2021/12/27 21:14:31;;;;;;;26.80;16.30;;;23.40;39.50;;;;;;214041;1309;25435;-53
2021/12/27 21:19:47;;;;;;;22.60;15.70;;;23.50;40.10;;;;;;214130;1316;23930;-54
2021/12/27 21:24:55;;;;;;;27.70;16.60;;;23.40;39.90;;;;;;214262;1309;22598;-61
2021/12/27 21:30:10;;;;;;;28.70;16.60;;;23.40;40.20;;;;;;214107;1314;24339;-57
2021/12/27 21:35:28;;;;;;;33.30;17.50;;;23.30;40.80;;;;;;214153;1316;22563;-58
2021/12/27 21:40:33;;;;;;;26.10;16.40;;;23.30;40.10;;;;;;214190;1309;22757;-60
2021/12/27 21:45:39;;;;;;;24.80;15.90;;;23.40;39.90;;;;;;214207;1309;24438;-58
2021/12/27 21:50:49;;;;;;;24.60;16.00;;;23.30;39.80;;;;;;214078;1309;25528;-60
2021/12/27 21:55:58;;;;;;;25.40;16.30;;;23.20;40.10;;;;;;214105;1309;23127;-58
2021/12/27 22:01:06;;;;;;;23.70;15.60;;;23.20;40.10;;;;;;214108;1312;24409;-54
2021/12/27 22:06:18;;;;;;;25.50;16.70;;;23.30;40.40;;;;;;214290;1312;22582;-59
2021/12/27 22:11:25;;;;;;;25.00;15.80;;;23.40;40.20;;;;;;213716;1309;22562;-56
2021/12/27 22:16:43;;;;;;;26.20;15.60;;;23.50;40.90;;;;;;213930;1319;25621;-59
2021/12/27 22:21:53;;;;;;;24.20;15.90;;;23.80;42.40;;;;;;213789;1317;24438;-57
2021/12/27 22:26:57;;;;;;;21.80;15.30;;;23.90;42.10;;;;;;213873;1310;24213;-56
2021/12/27 22:32:04;;;;;;;23.40;16.00;;;23.90;42.30;;;;;;213843;1310;22588;-57
2021/12/27 22:37:15;;;;;;;25.50;16.60;;;24.00;42.30;;;;;;214129;1309;24793;-59
2021/12/27 22:42:45;;;;;;;25.00;16.00;;;24.00;42.10;;;;;;214029;1309;22584;-57
2021/12/27 22:48:19;;;;;;;29.30;16.40;;;24.10;42.40;;;;;;213968;1309;24336;-57
2021/12/27 22:53:49;;;;;;;26.20;16.90;;;24.00;42.60;;;;;;213950;1309;24238;-58
2021/12/27 22:59:06;;;;;;;24.00;16.20;;;24.00;42.90;;;;;;214028;1312;22651;-57
2021/12/27 23:04:10;;;;;;;23.00;16.40;;;23.90;42.60;;;;;;213500;1311;22593;-58
2021/12/27 23:09:21;;;;;;;23.30;16.50;;;23.90;42.80;;;;;;213561;1311;24329;-55
2021/12/27 23:14:26;;;;;;;22.00;15.90;;;23.90;43.00;;;;;;214195;1309;22593;-59
2021/12/27 23:19:45;;;;;;;24.10;18.00;;;23.90;43.20;;;;;;214185;1309;22607;-57
2021/12/27 23:24:56;;;;;;;25.70;16.90;;;24.00;42.90;;;;;;214176;1309;24342;-59
2021/12/27 23:30:22;;;;;;;24.40;16.40;;;24.10;42.50;;;;;;214300;1313;22586;-58
2021/12/27 23:35:39;;;;;;;24.00;17.00;;;24.10;42.20;;;;;;214028;1309;24338;-60
2021/12/27 23:40:49;;;;;;;22.60;16.30;;;24.10;42.20;;;;;;214285;1310;22573;-59
2021/12/27 23:46:14;;;;;;;22.40;16.40;;;24.10;41.90;;;;;;214083;1309;22574;-59
2021/12/27 23:51:41;;;;;;;21.50;16.80;;;23.90;42.10;;;;;;213581;1311;24611;-57
2021/12/27 23:56:53;;;;;;;24.50;16.50;;;23.70;42.30;;;;;;214229;1309;22780;-58
